Alsace — PB4786 — position and weather

sailwx.info

Track history (hours):
 
Tides and Currents Weather Stations Pressure Air Temp Water Temp Dewpoint Dewpoint Depression Visibility Wind Speed Wind Dir Waves Ship Positions

Alsace

Last reported at 2016-Dec-05 10:33 UTC. Time now 2016-Dec-05 10:35 UTC.
Position N 51°51' E 004°40'.

Length 178 m; draft 1.8 m.

Type: Ship. MMSI: 244660556.

Date/timePositionNaut miles runAvg speedWind from/ knotsBaromVisibWave heightAir tempDewpointWater temp
2016-Dec-05 10:33N 51°51' E 004°40'2 1.9
2016-Dec-05 09:34N 51°49' E 004°42'9 9.0
2016-Dec-05 08:34N 51°50' E 004°57'9 8.4
2016-Dec-05 07:33N 51°49' E 005°11'8 8.2
2016-Dec-05 06:31N 51°50' E 005°24'8 8.8
2016-Dec-05 05:33N 51°54' E 005°36'10 9.7
2016-Dec-05 04:33N 51°51' E 005°51'8 7.5
2016-Dec-05 03:34N 51°52' E 006°03'10 9.8
2016-Dec-05 02:33N 51°48' E 006°18'9 8.0
2016-Dec-05 01:29N 51°42' E 006°28'7 7.3
2016-Dec-05 00:33N 51°37' E 006°35'42 6.6
2016-Dec-04 18:13N 50°58' E 006°60'5 6.9
2016-Dec-04 17:33N 50°54' E 007°02'108 6.7
2016-Dec-04 01:34N 49°22' E 008°30'7 6.7
2016-Dec-04 00:34N 49°16' E 008°26'8 7.8
2016-Dec-03 23:34N 49°09' E 008°22'9 8.7
2016-Dec-03 22:31N 48°60' E 008°17'90 2.4
2016-Dec-02 08:28N 47°34' E 007°38'1 0.8
2016-Dec-02 07:33N 47°33' E 007°39'0 0.0
2016-Dec-02 06:34N 47°33' E 007°39'0 0.0
2016-Dec-02 05:33N 47°33' E 007°39'0 0.0
2016-Dec-02 04:33N 47°33' E 007°39'0 0.0
2016-Dec-02 03:33N 47°33' E 007°39'0 0.0
2016-Dec-02 02:33N 47°33' E 007°39'0 0.0
2016-Dec-02 01:33N 47°33' E 007°39'0 0.0
2016-Dec-02 00:33N 47°33' E 007°39'0 0.0
2016-Dec-01 23:33N 47°33' E 007°39'0 0.0
2016-Dec-01 22:34N 47°33' E 007°39'0 0.0
2016-Dec-01 21:34N 47°33' E 007°39'0 0.0
2016-Dec-01 20:33N 47°33' E 007°39'0 0.0
2016-Dec-01 19:33N 47°33' E 007°39'1 1.0
2016-Dec-01 18:33N 47°32' E 007°40'0 0.0
2016-Dec-01 17:33N 47°32' E 007°40'2 1.6
2016-Dec-01 16:20N 47°34' E 007°37'90 2.5
2016-Nov-30 04:33N 48°59' E 008°17'4 4.2
2016-Nov-30 03:33N 49°04' E 008°19'4 4.5
2016-Nov-30 02:33N 49°08' E 008°22'4 3.8
2016-Nov-30 01:33N 49°11' E 008°23'4 4.3
2016-Nov-30 00:33N 49°15' E 008°26'4 3.6
2016-Nov-29 23:31N 49°19' E 008°28'95 4.3
2016-Nov-29 01:07N 50°40' E 007°11'3 5.7
2016-Nov-29 00:33N 50°43' E 007°09'6 5.5
2016-Nov-28 23:33N 50°47' E 007°02'4 4.2
2016-Nov-28 22:30N 50°51' E 007°00'3 2.9
2016-Nov-28 21:29N 50°54' E 006°59'43 3.9
2016-Nov-28 10:31N 51°35' E 006°40'4 4.1
2016-Nov-28 09:32N 51°38' E 006°35'4 4.5
2016-Nov-28 08:33N 51°40' E 006°29'5 5.0
2016-Nov-28 07:32N 51°44' E 006°25'5 5.1
2016-Nov-28 06:33N 51°48' E 006°19'6 6.0
2016-Nov-28 05:33N 51°50' E 006°10'6 6.3
2016-Nov-28 04:33N 51°53' E 006°01'5 4.9
2016-Nov-28 03:33N 51°52' E 005°53'2 2.2
2016-Nov-28 02:33N 51°52' E 005°50'3 2.7
2016-Nov-28 01:32N 51°53' E 005°46'14 5.9
2016-Nov-27 23:14N 51°50' E 005°24'12 5.7
2016-Nov-27 21:10N 51°50' E 005°05'4 7.2
2016-Nov-27 20:33N 51°49' E 004°58'8 7.5
2016-Nov-27 19:33N 51°48' E 004°46'9 8.1
2016-Nov-27 18:30N 51°42' E 004°35'24 4.6
2016-Nov-27 13:19N 51°21' E 004°18'2 2.4
2016-Nov-27 12:33N 51°19' E 004°19'3 3.0
2016-Nov-27 11:34N 51°16' E 004°20'1 0.8
2016-Nov-27 10:33N 51°17' E 004°19'2 1.7
2016-Nov-27 09:11N 51°17' E 004°15'0 0.0
2016-Nov-27 08:32N 51°17' E 004°15'3 2.8
2016-Nov-27 07:33N 51°20' E 004°16'0 0.4
2016-Nov-27 06:29N 51°20' E 004°17'0 0.0
2016-Nov-27 05:33N 51°20' E 004°17'1 1.4
2016-Nov-27 04:33N 51°19' E 004°16'0 0.0
2016-Nov-26 23:15N 51°19' E 004°17'0 0.1
2016-Nov-26 22:34N 51°19' E 004°16'1 1.4
2016-Nov-26 21:33N 51°18' E 004°16'0 0.0
2016-Nov-26 20:29N 51°18' E 004°16'0 0.0
2016-Nov-26 19:33N 51°18' E 004°16'0 0.0
2016-Nov-26 18:33N 51°18' E 004°16'0 0.0
2016-Nov-26 17:33N 51°18' E 004°16'1 0.6
2016-Nov-26 16:28N 51°17' E 004°15'0 0.0
2016-Nov-26 15:32N 51°17' E 004°15'2 2.0
2016-Nov-26 14:33N 51°19' E 004°17'0 0.0
2016-Nov-26 13:33N 51°19' E 004°17'0 0.0
2016-Nov-26 12:33N 51°19' E 004°17'2 2.4
2016-Nov-26 11:32N 51°21' E 004°15'0 0.0
2016-Nov-26 09:29N 51°21' E 004°15'3 3.6
2016-Nov-26 08:33N 51°18' E 004°17'0 0.0
2016-Nov-26 07:33N 51°18' E 004°17'0 0.0
2016-Nov-26 06:33N 51°18' E 004°17'0 0.0
2016-Nov-26 05:33N 51°18' E 004°17'0 0.0
2016-Nov-26 04:33N 51°18' E 004°17'1 1.3
2016-Nov-26 03:33N 51°17' E 004°16'0 0.0
2016-Nov-26 02:33N 51°17' E 004°16'1 1.3
2016-Nov-26 01:32N 51°18' E 004°17'0 0.0
2016-Nov-26 00:33N 51°18' E 004°17'0 0.0
2016-Nov-25 23:33N 51°18' E 004°17'0 0.0
2016-Nov-25 22:33N 51°18' E 004°17'0 0.0
2016-Nov-25 21:33N 51°18' E 004°17'0 0.0
2016-Nov-25 20:32N 51°18' E 004°17'0 0.0
2016-Nov-25 19:32N 51°18' E 004°17'0 0.0
2016-Nov-25 18:33N 51°18' E 004°17'0 0.0
2016-Nov-25 17:33N 51°18' E 004°17'0 0.1
2016-Nov-25 16:33N 51°18' E 004°17'2 2.3
2016-Nov-25 15:33N 51°17' E 004°20'  
Track history (hours):
 
Tides and Currents Weather Stations Pressure Air Temp Water Temp Dewpoint Dewpoint Depression Visibility Wind Speed Wind Dir Waves Ship Positions

Alsace

Last reported at 2016-Dec-05 10:33 UTC. Time now 2016-Dec-05 10:35 UTC.
Position N 51°51' E 004°40'.

Length 178 m; draft 1.8 m.

Type: Ship. MMSI: 244660556.

Date/timePositionNaut miles runAvg speedWind from/ knotsBaromVisibWave heightAir tempDewpointWater temp
2016-Dec-05 10:33N 51°51' E 004°40'2 1.9
2016-Dec-05 09:34N 51°49' E 004°42'9 9.0
2016-Dec-05 08:34N 51°50' E 004°57'9 8.4
2016-Dec-05 07:33N 51°49' E 005°11'8 8.2
2016-Dec-05 06:31N 51°50' E 005°24'8 8.8
2016-Dec-05 05:33N 51°54' E 005°36'10 9.7
2016-Dec-05 04:33N 51°51' E 005°51'8 7.5
2016-Dec-05 03:34N 51°52' E 006°03'10 9.8
2016-Dec-05 02:33N 51°48' E 006°18'9 8.0
2016-Dec-05 01:29N 51°42' E 006°28'7 7.3
2016-Dec-05 00:33N 51°37' E 006°35'42 6.6
2016-Dec-04 18:13N 50°58' E 006°60'5 6.9
2016-Dec-04 17:33N 50°54' E 007°02'108 6.7
2016-Dec-04 01:34N 49°22' E 008°30'7 6.7
2016-Dec-04 00:34N 49°16' E 008°26'8 7.8
2016-Dec-03 23:34N 49°09' E 008°22'9 8.7
2016-Dec-03 22:31N 48°60' E 008°17'90 2.4
2016-Dec-02 08:28N 47°34' E 007°38'1 0.8
2016-Dec-02 07:33N 47°33' E 007°39'0 0.0
2016-Dec-02 06:34N 47°33' E 007°39'0 0.0
2016-Dec-02 05:33N 47°33' E 007°39'0 0.0
2016-Dec-02 04:33N 47°33' E 007°39'0 0.0
2016-Dec-02 03:33N 47°33' E 007°39'0 0.0
2016-Dec-02 02:33N 47°33' E 007°39'0 0.0
2016-Dec-02 01:33N 47°33' E 007°39'0 0.0
2016-Dec-02 00:33N 47°33' E 007°39'0 0.0
2016-Dec-01 23:33N 47°33' E 007°39'0 0.0
2016-Dec-01 22:34N 47°33' E 007°39'0 0.0
2016-Dec-01 21:34N 47°33' E 007°39'0 0.0
2016-Dec-01 20:33N 47°33' E 007°39'0 0.0
2016-Dec-01 19:33N 47°33' E 007°39'1 1.0
2016-Dec-01 18:33N 47°32' E 007°40'0 0.0
2016-Dec-01 17:33N 47°32' E 007°40'2 1.6
2016-Dec-01 16:20N 47°34' E 007°37'90 2.5
2016-Nov-30 04:33N 48°59' E 008°17'4 4.2
2016-Nov-30 03:33N 49°04' E 008°19'4 4.5
2016-Nov-30 02:33N 49°08' E 008°22'4 3.8
2016-Nov-30 01:33N 49°11' E 008°23'4 4.3
2016-Nov-30 00:33N 49°15' E 008°26'4 3.6
2016-Nov-29 23:31N 49°19' E 008°28'95 4.3
2016-Nov-29 01:07N 50°40' E 007°11'3 5.7
2016-Nov-29 00:33N 50°43' E 007°09'6 5.5
2016-Nov-28 23:33N 50°47' E 007°02'4 4.2
2016-Nov-28 22:30N 50°51' E 007°00'3 2.9
2016-Nov-28 21:29N 50°54' E 006°59'43 3.9
2016-Nov-28 10:31N 51°35' E 006°40'4 4.1
2016-Nov-28 09:32N 51°38' E 006°35'4 4.5
2016-Nov-28 08:33N 51°40' E 006°29'5 5.0
2016-Nov-28 07:32N 51°44' E 006°25'5 5.1
2016-Nov-28 06:33N 51°48' E 006°19'6 6.0
2016-Nov-28 05:33N 51°50' E 006°10'6 6.3
2016-Nov-28 04:33N 51°53' E 006°01'5 4.9
2016-Nov-28 03:33N 51°52' E 005°53'2 2.2
2016-Nov-28 02:33N 51°52' E 005°50'3 2.7
2016-Nov-28 01:32N 51°53' E 005°46'14 5.9
2016-Nov-27 23:14N 51°50' E 005°24'12 5.7
2016-Nov-27 21:10N 51°50' E 005°05'4 7.2
2016-Nov-27 20:33N 51°49' E 004°58'8 7.5
2016-Nov-27 19:33N 51°48' E 004°46'9 8.1
2016-Nov-27 18:30N 51°42' E 004°35'24 4.6
2016-Nov-27 13:19N 51°21' E 004°18'2 2.4
2016-Nov-27 12:33N 51°19' E 004°19'3 3.0
2016-Nov-27 11:34N 51°16' E 004°20'1 0.8
2016-Nov-27 10:33N 51°17' E 004°19'2 1.7
2016-Nov-27 09:11N 51°17' E 004°15'0 0.0
2016-Nov-27 08:32N 51°17' E 004°15'3 2.8
2016-Nov-27 07:33N 51°20' E 004°16'0 0.4
2016-Nov-27 06:29N 51°20' E 004°17'0 0.0
2016-Nov-27 05:33N 51°20' E 004°17'1 1.4
2016-Nov-27 04:33N 51°19' E 004°16'0 0.0
2016-Nov-26 23:15N 51°19' E 004°17'0 0.1
2016-Nov-26 22:34N 51°19' E 004°16'1 1.4
2016-Nov-26 21:33N 51°18' E 004°16'0 0.0
2016-Nov-26 20:29N 51°18' E 004°16'0 0.0
2016-Nov-26 19:33N 51°18' E 004°16'0 0.0
2016-Nov-26 18:33N 51°18' E 004°16'0 0.0
2016-Nov-26 17:33N 51°18' E 004°16'1 0.6
2016-Nov-26 16:28N 51°17' E 004°15'0 0.0
2016-Nov-26 15:32N 51°17' E 004°15'2 2.0
2016-Nov-26 14:33N 51°19' E 004°17'0 0.0
2016-Nov-26 13:33N 51°19' E 004°17'0 0.0
2016-Nov-26 12:33N 51°19' E 004°17'2 2.4
2016-Nov-26 11:32N 51°21' E 004°15'0 0.0
2016-Nov-26 09:29N 51°21' E 004°15'3 3.6
2016-Nov-26 08:33N 51°18' E 004°17'0 0.0
2016-Nov-26 07:33N 51°18' E 004°17'0 0.0
2016-Nov-26 06:33N 51°18' E 004°17'0 0.0
2016-Nov-26 05:33N 51°18' E 004°17'0 0.0
2016-Nov-26 04:33N 51°18' E 004°17'1 1.3
2016-Nov-26 03:33N 51°17' E 004°16'0 0.0
2016-Nov-26 02:33N 51°17' E 004°16'1 1.3
2016-Nov-26 01:32N 51°18' E 004°17'0 0.0
2016-Nov-26 00:33N 51°18' E 004°17'0 0.0
2016-Nov-25 23:33N 51°18' E 004°17'0 0.0
2016-Nov-25 22:33N 51°18' E 004°17'0 0.0
2016-Nov-25 21:33N 51°18' E 004°17'0 0.0
2016-Nov-25 20:32N 51°18' E 004°17'0 0.0
2016-Nov-25 19:32N 51°18' E 004°17'0 0.0
2016-Nov-25 18:33N 51°18' E 004°17'0 0.0
2016-Nov-25 17:33N 51°18' E 004°17'0 0.1
2016-Nov-25 16:33N 51°18' E 004°17'2 2.3
2016-Nov-25 15:33N 51°17' E 004°20'  

Dump ship's entire track history